sensor_id;sensor_type;location;lat;lon;timestamp;P1;durP1;ratioP1;P2;durP2;ratioP2
55069;SDS011;40967;52.070;8.596;2023-07-20T00:02:03;0.30;;;0.20;;
55069;SDS011;40967;52.070;8.596;2023-07-20T00:04:30;0.25;;;0.20;;
55069;SDS011;40967;52.070;8.596;2023-07-20T00:06:55;0.30;;;0.28;;
55069;SDS011;40967;52.070;8.596;2023-07-20T00:09:21;1.00;;;0.10;;
55069;SDS011;40967;52.070;8.596;2023-07-20T00:11:49;0.30;;;0.20;;
55069;SDS011;40967;52.070;8.596;2023-07-20T00:14:16;0.60;;;0.20;;
55069;SDS011;40967;52.070;8.596;2023-07-20T00:16:42;0.28;;;0.20;;
55069;SDS011;40967;52.070;8.596;2023-07-20T00:19:07;0.33;;;0.20;;
55069;SDS011;40967;52.070;8.596;2023-07-20T00:21:33;0.25;;;0.20;;
55069;SDS011;40967;52.070;8.596;2023-07-20T00:23:58;0.57;;;0.20;;
55069;SDS011;40967;52.070;8.596;2023-07-20T00:26:24;0.30;;;0.20;;
55069;SDS011;40967;52.070;8.596;2023-07-20T00:28:49;0.30;;;0.20;;
55069;SDS011;40967;52.070;8.596;2023-07-20T00:31:15;0.30;;;0.28;;
55069;SDS011;40967;52.070;8.596;2023-07-20T00:33:41;0.10;;;0.10;;
55069;SDS011;40967;52.070;8.596;2023-07-20T00:36:06;0.10;;;0.10;;
55069;SDS011;40967;52.070;8.596;2023-07-20T00:38:32;0.13;;;0.10;;
55069;SDS011;40967;52.070;8.596;2023-07-20T00:40:57;0.33;;;0.20;;
55069;SDS011;40967;52.070;8.596;2023-07-20T00:43:22;0.20;;;0.20;;
55069;SDS011;40967;52.070;8.596;2023-07-20T00:45:47;0.20;;;0.20;;
55069;SDS011;40967;52.070;8.596;2023-07-20T00:48:13;0.20;;;0.20;;
55069;SDS011;40967;52.070;8.596;2023-07-20T00:50:39;0.10;;;0.10;;
55069;SDS011;40967;52.070;8.596;2023-07-20T00:53:05;0.20;;;0.10;;
55069;SDS011;40967;52.070;8.596;2023-07-20T00:55:31;0.10;;;0.10;;
55069;SDS011;40967;52.070;8.596;2023-07-20T00:57:56;0.20;;;0.20;;
55069;SDS011;40967;52.070;8.596;2023-07-20T01:00:22;0.10;;;0.10;;
55069;SDS011;40967;52.070;8.596;2023-07-20T01:02:48;0.03;;;0.03;;
55069;SDS011;40967;52.070;8.596;2023-07-20T01:05:13;0.13;;;0.10;;
55069;SDS011;40967;52.070;8.596;2023-07-20T01:07:52;0.10;;;0.10;;
55069;SDS011;40967;52.070;8.596;2023-07-20T01:13:02;0.10;;;0.10;;
55069;SDS011;40967;52.070;8.596;2023-07-20T01:15:30;0.10;;;0.10;;
55069;SDS011;40967;52.070;8.596;2023-07-20T01:17:55;0.30;;;0.10;;
55069;SDS011;40967;52.070;8.596;2023-07-20T01:20:20;0.10;;;0.10;;
55069;SDS011;40967;52.070;8.596;2023-07-20T01:33:20;0.50;;;0.20;;
55069;SDS011;40967;52.070;8.596;2023-07-20T01:35:56;0.20;;;0.20;;
55069;SDS011;40967;52.070;8.596;2023-07-20T01:38:23;0.13;;;0.13;;
55069;SDS011;40967;52.070;8.596;2023-07-20T01:40:49;0.27;;;0.17;;
55069;SDS011;40967;52.070;8.596;2023-07-20T01:43:16;0.22;;;0.20;;
55069;SDS011;40967;52.070;8.596;2023-07-20T01:45:42;0.30;;;0.10;;
55069;SDS011;40967;52.070;8.596;2023-07-20T01:48:08;0.17;;;0.17;;
55069;SDS011;40967;52.070;8.596;2023-07-20T01:50:33;0.20;;;0.20;;
55069;SDS011;40967;52.070;8.596;2023-07-20T01:52:59;0.30;;;0.20;;
55069;SDS011;40967;52.070;8.596;2023-07-20T01:55:25;0.32;;;0.22;;
55069;SDS011;40967;52.070;8.596;2023-07-20T01:57:50;0.20;;;0.20;;
55069;SDS011;40967;52.070;8.596;2023-07-20T02:00:16;0.23;;;0.20;;
55069;SDS011;40967;52.070;8.596;2023-07-20T02:02:41;0.28;;;0.20;;
55069;SDS011;40967;52.070;8.596;2023-07-20T02:05:07;0.20;;;0.20;;
55069;SDS011;40967;52.070;8.596;2023-07-20T02:07:33;0.13;;;0.13;;
55069;SDS011;40967;52.070;8.596;2023-07-20T02:09:58;0.33;;;0.20;;
55069;SDS011;40967;52.070;8.596;2023-07-20T02:12:24;0.20;;;0.10;;
55069;SDS011;40967;52.070;8.596;2023-07-20T02:14:49;0.70;;;0.40;;
55069;SDS011;40967;52.070;8.596;2023-07-20T02:17:16;0.40;;;0.25;;
55069;SDS011;40967;52.070;8.596;2023-07-20T02:19:41;0.40;;;0.30;;
55069;SDS011;40967;52.070;8.596;2023-07-20T02:22:06;0.40;;;0.30;;
55069;SDS011;40967;52.070;8.596;2023-07-20T02:24:32;0.57;;;0.30;;
55069;SDS011;40967;52.070;8.596;2023-07-20T02:26:58;0.20;;;0.20;;
55069;SDS011;40967;52.070;8.596;2023-07-20T02:29:23;0.20;;;0.20;;
55069;SDS011;40967;52.070;8.596;2023-07-20T02:31:49;0.20;;;0.20;;
55069;SDS011;40967;52.070;8.596;2023-07-20T02:34:14;0.40;;;0.30;;
55069;SDS011;40967;52.070;8.596;2023-07-20T02:36:39;0.20;;;0.20;;
55069;SDS011;40967;52.070;8.596;2023-07-20T02:39:07;0.52;;;0.20;;
55069;SDS011;40967;52.070;8.596;2023-07-20T02:41:32;1.08;;;0.60;;
55069;SDS011;40967;52.070;8.596;2023-07-20T02:43:58;1.10;;;0.73;;
55069;SDS011;40967;52.070;8.596;2023-07-20T02:46:23;0.80;;;0.60;;
55069;SDS011;40967;52.070;8.596;2023-07-20T02:48:49;0.40;;;0.40;;
55069;SDS011;40967;52.070;8.596;2023-07-20T02:51:14;1.43;;;0.80;;
55069;SDS011;40967;52.070;8.596;2023-07-20T02:53:39;0.93;;;0.70;;
55069;SDS011;40967;52.070;8.596;2023-07-20T02:56:04;0.80;;;0.60;;
55069;SDS011;40967;52.070;8.596;2023-07-20T02:58:30;0.70;;;0.50;;
55069;SDS011;40967;52.070;8.596;2023-07-20T03:00:55;0.90;;;0.50;;
55069;SDS011;40967;52.070;8.596;2023-07-20T03:03:20;1.60;;;1.00;;
55069;SDS011;40967;52.070;8.596;2023-07-20T03:05:46;2.20;;;1.33;;
55069;SDS011;40967;52.070;8.596;2023-07-20T03:08:11;2.07;;;1.40;;
55069;SDS011;40967;52.070;8.596;2023-07-20T03:10:40;1.87;;;1.20;;
55069;SDS011;40967;52.070;8.596;2023-07-20T03:13:06;1.50;;;1.03;;
55069;SDS011;40967;52.070;8.596;2023-07-20T03:15:31;1.20;;;0.85;;
55069;SDS011;40967;52.070;8.596;2023-07-20T03:17:57;1.33;;;0.80;;
55069;SDS011;40967;52.070;8.596;2023-07-20T03:20:23;2.08;;;0.80;;
55069;SDS011;40967;52.070;8.596;2023-07-20T03:22:49;1.00;;;0.80;;
55069;SDS011;40967;52.070;8.596;2023-07-20T03:25:14;1.80;;;0.77;;
55069;SDS011;40967;52.070;8.596;2023-07-20T03:27:39;1.70;;;0.87;;
55069;SDS011;40967;52.070;8.596;2023-07-20T03:30:05;0.90;;;0.70;;
55069;SDS011;40967;52.070;8.596;2023-07-20T03:32:32;1.30;;;0.68;;
55069;SDS011;40967;52.070;8.596;2023-07-20T03:34:57;0.90;;;0.50;;
55069;SDS011;40967;52.070;8.596;2023-07-20T03:37:23;0.50;;;0.40;;
55069;SDS011;40967;52.070;8.596;2023-07-20T03:39:48;0.60;;;0.30;;
55069;SDS011;40967;52.070;8.596;2023-07-20T03:42:13;1.83;;;0.83;;
55069;SDS011;40967;52.070;8.596;2023-07-20T03:44:39;2.70;;;1.20;;
55069;SDS011;40967;52.070;8.596;2023-07-20T03:47:04;1.83;;;0.93;;
55069;SDS011;40967;52.070;8.596;2023-07-20T03:49:30;2.13;;;1.00;;
55069;SDS011;40967;52.070;8.596;2023-07-20T03:51:55;1.30;;;0.80;;
55069;SDS011;40967;52.070;8.596;2023-07-20T03:54:20;0.80;;;0.60;;
55069;SDS011;40967;52.070;8.596;2023-07-20T03:56:46;0.93;;;0.50;;
55069;SDS011;40967;52.070;8.596;2023-07-20T03:59:11;0.97;;;0.60;;
55069;SDS011;40967;52.070;8.596;2023-07-20T04:01:36;1.17;;;0.60;;
55069;SDS011;40967;52.070;8.596;2023-07-20T04:04:05;0.80;;;0.60;;
55069;SDS011;40967;52.070;8.596;2023-07-20T04:06:32;0.85;;;0.55;;
55069;SDS011;40967;52.070;8.596;2023-07-20T04:08:57;0.75;;;0.50;;
55069;SDS011;40967;52.070;8.596;2023-07-20T04:11:23;0.40;;;0.35;;
55069;SDS011;40967;52.070;8.596;2023-07-20T04:13:48;0.38;;;0.20;;
55069;SDS011;40967;52.070;8.596;2023-07-20T04:16:13;0.38;;;0.20;;
55069;SDS011;40967;52.070;8.596;2023-07-20T04:18:38;0.93;;;0.40;;
55069;SDS011;40967;52.070;8.596;2023-07-20T04:21:04;0.77;;;0.40;;
55069;SDS011;40967;52.070;8.596;2023-07-20T04:23:29;1.10;;;0.30;;
55069;SDS011;40967;52.070;8.596;2023-07-20T04:25:54;0.90;;;0.40;;
55069;SDS011;40967;52.070;8.596;2023-07-20T04:28:20;0.40;;;0.30;;
55069;SDS011;40967;52.070;8.596;2023-07-20T04:30:48;0.35;;;0.30;;
55069;SDS011;40967;52.070;8.596;2023-07-20T04:33:20;1.00;;;0.67;;
55069;SDS011;40967;52.070;8.596;2023-07-20T04:35:47;0.73;;;0.60;;
55069;SDS011;40967;52.070;8.596;2023-07-20T04:38:16;1.63;;;0.93;;
55069;SDS011;40967;52.070;8.596;2023-07-20T04:40:46;0.80;;;0.50;;
55069;SDS011;40967;52.070;8.596;2023-07-20T04:43:13;0.90;;;0.50;;
55069;SDS011;40967;52.070;8.596;2023-07-20T04:45:39;0.82;;;0.50;;
55069;SDS011;40967;52.070;8.596;2023-07-20T04:48:06;0.60;;;0.43;;
55069;SDS011;40967;52.070;8.596;2023-07-20T04:50:34;0.70;;;0.50;;
55069;SDS011;40967;52.070;8.596;2023-07-20T04:52:59;0.20;;;0.20;;
55069;SDS011;40967;52.070;8.596;2023-07-20T04:55:26;0.45;;;0.38;;
55069;SDS011;40967;52.070;8.596;2023-07-20T04:57:52;0.40;;;0.30;;
55069;SDS011;40967;52.070;8.596;2023-07-20T05:00:18;0.30;;;0.30;;
55069;SDS011;40967;52.070;8.596;2023-07-20T05:02:44;0.38;;;0.30;;
55069;SDS011;40967;52.070;8.596;2023-07-20T05:05:09;0.37;;;0.20;;
55069;SDS011;40967;52.070;8.596;2023-07-20T05:07:34;0.50;;;0.20;;
55069;SDS011;40967;52.070;8.596;2023-07-20T05:10:00;0.33;;;0.20;;
55069;SDS011;40967;52.070;8.596;2023-07-20T05:12:25;0.47;;;0.20;;
55069;SDS011;40967;52.070;8.596;2023-07-20T05:14:51;0.30;;;0.20;;
55069;SDS011;40967;52.070;8.596;2023-07-20T05:17:16;0.20;;;0.20;;
55069;SDS011;40967;52.070;8.596;2023-07-20T05:19:41;0.50;;;0.30;;
55069;SDS011;40967;52.070;8.596;2023-07-20T05:22:07;0.67;;;0.40;;
55069;SDS011;40967;52.070;8.596;2023-07-20T05:24:32;0.37;;;0.30;;
55069;SDS011;40967;52.070;8.596;2023-07-20T05:26:58;0.63;;;0.30;;
55069;SDS011;40967;52.070;8.596;2023-07-20T05:29:23;0.30;;;0.22;;
55069;SDS011;40967;52.070;8.596;2023-07-20T05:31:49;0.80;;;0.30;;
55069;SDS011;40967;52.070;8.596;2023-07-20T05:34:14;0.40;;;0.30;;
55069;SDS011;40967;52.070;8.596;2023-07-20T05:36:39;0.40;;;0.30;;
55069;SDS011;40967;52.070;8.596;2023-07-20T05:39:05;0.40;;;0.40;;
55069;SDS011;40967;52.070;8.596;2023-07-20T05:41:30;0.70;;;0.50;;
55069;SDS011;40967;52.070;8.596;2023-07-20T05:43:55;1.00;;;0.40;;
55069;SDS011;40967;52.070;8.596;2023-07-20T05:46:21;0.30;;;0.30;;
55069;SDS011;40967;52.070;8.596;2023-07-20T05:48:46;0.30;;;0.30;;
55069;SDS011;40967;52.070;8.596;2023-07-20T05:51:11;0.50;;;0.33;;
55069;SDS011;40967;52.070;8.596;2023-07-20T05:53:36;0.50;;;0.33;;
55069;SDS011;40967;52.070;8.596;2023-07-20T05:56:03;0.82;;;0.50;;
55069;SDS011;40967;52.070;8.596;2023-07-20T05:58:28;1.20;;;0.50;;
55069;SDS011;40967;52.070;8.596;2023-07-20T06:00:53;0.50;;;0.40;;
55069;SDS011;40967;52.070;8.596;2023-07-20T06:03:19;0.43;;;0.37;;
55069;SDS011;40967;52.070;8.596;2023-07-20T06:05:46;0.57;;;0.40;;
55069;SDS011;40967;52.070;8.596;2023-07-20T06:08:12;0.60;;;0.40;;
55069;SDS011;40967;52.070;8.596;2023-07-20T06:10:37;0.60;;;0.40;;
55069;SDS011;40967;52.070;8.596;2023-07-20T06:13:02;0.90;;;0.40;;
55069;SDS011;40967;52.070;8.596;2023-07-20T06:15:28;0.67;;;0.37;;
55069;SDS011;40967;52.070;8.596;2023-07-20T06:17:56;0.90;;;0.40;;
55069;SDS011;40967;52.070;8.596;2023-07-20T06:20:23;0.70;;;0.38;;
55069;SDS011;40967;52.070;8.596;2023-07-20T06:22:49;0.33;;;0.30;;
55069;SDS011;40967;52.070;8.596;2023-07-20T06:25:14;0.40;;;0.30;;
55069;SDS011;40967;52.070;8.596;2023-07-20T06:27:39;0.20;;;0.20;;
55069;SDS011;40967;52.070;8.596;2023-07-20T06:30:05;0.80;;;0.27;;
55069;SDS011;40967;52.070;8.596;2023-07-20T06:32:30;0.90;;;0.50;;
55069;SDS011;40967;52.070;8.596;2023-07-20T06:34:56;0.83;;;0.57;;
55069;SDS011;40967;52.070;8.596;2023-07-20T06:37:21;0.40;;;0.30;;
55069;SDS011;40967;52.070;8.596;2023-07-20T06:39:47;0.43;;;0.30;;
55069;SDS011;40967;52.070;8.596;2023-07-20T06:42:12;0.53;;;0.30;;
55069;SDS011;40967;52.070;8.596;2023-07-20T06:44:37;0.80;;;0.40;;
55069;SDS011;40967;52.070;8.596;2023-07-20T06:47:03;2.07;;;0.70;;
55069;SDS011;40967;52.070;8.596;2023-07-20T06:49:28;0.83;;;0.50;;
55069;SDS011;40967;52.070;8.596;2023-07-20T06:51:54;1.30;;;0.50;;
55069;SDS011;40967;52.070;8.596;2023-07-20T06:54:19;1.23;;;0.57;;
55069;SDS011;40967;52.070;8.596;2023-07-20T06:56:45;0.93;;;0.50;;
55069;SDS011;40967;52.070;8.596;2023-07-20T06:59:10;0.63;;;0.43;;
55069;SDS011;40967;52.070;8.596;2023-07-20T07:01:35;1.40;;;0.60;;
55069;SDS011;40967;52.070;8.596;2023-07-20T07:04:01;0.98;;;0.55;;
55069;SDS011;40967;52.070;8.596;2023-07-20T07:06:26;0.85;;;0.52;;
55069;SDS011;40967;52.070;8.596;2023-07-20T07:08:52;0.50;;;0.38;;
55069;SDS011;40967;52.070;8.596;2023-07-20T07:11:18;1.10;;;0.40;;
55069;SDS011;40967;52.070;8.596;2023-07-20T07:13:43;1.20;;;0.40;;
55069;SDS011;40967;52.070;8.596;2023-07-20T07:16:11;0.80;;;0.30;;
55069;SDS011;40967;52.070;8.596;2023-07-20T07:18:37;1.00;;;0.30;;
55069;SDS011;40967;52.070;8.596;2023-07-20T07:21:02;0.47;;;0.20;;
55069;SDS011;40967;52.070;8.596;2023-07-20T07:23:27;0.47;;;0.30;;
55069;SDS011;40967;52.070;8.596;2023-07-20T07:25:53;1.03;;;0.50;;
55069;SDS011;40967;52.070;8.596;2023-07-20T07:28:18;0.60;;;0.30;;
55069;SDS011;40967;52.070;8.596;2023-07-20T07:30:43;0.90;;;0.40;;
55069;SDS011;40967;52.070;8.596;2023-07-20T07:33:09;1.30;;;0.40;;
55069;SDS011;40967;52.070;8.596;2023-07-20T07:35:35;0.57;;;0.30;;
55069;SDS011;40967;52.070;8.596;2023-07-20T07:38:01;0.95;;;0.43;;
55069;SDS011;40967;52.070;8.596;2023-07-20T07:40:26;0.83;;;0.37;;
55069;SDS011;40967;52.070;8.596;2023-07-20T07:42:51;0.87;;;0.30;;
55069;SDS011;40967;52.070;8.596;2023-07-20T07:45:16;0.30;;;0.20;;
55069;SDS011;40967;52.070;8.596;2023-07-20T07:47:42;0.83;;;0.37;;
55069;SDS011;40967;52.070;8.596;2023-07-20T07:50:07;0.40;;;0.27;;
55069;SDS011;40967;52.070;8.596;2023-07-20T07:52:33;0.30;;;0.20;;
55069;SDS011;40967;52.070;8.596;2023-07-20T07:54:58;1.10;;;0.53;;
55069;SDS011;40967;52.070;8.596;2023-07-20T07:57:25;0.52;;;0.28;;
55069;SDS011;40967;52.070;8.596;2023-07-20T07:59:50;0.30;;;0.27;;
55069;SDS011;40967;52.070;8.596;2023-07-20T08:02:15;0.43;;;0.30;;
55069;SDS011;40967;52.070;8.596;2023-07-20T08:04:40;0.60;;;0.20;;
55069;SDS011;40967;52.070;8.596;2023-07-20T08:07:06;0.30;;;0.20;;
55069;SDS011;40967;52.070;8.596;2023-07-20T08:09:31;0.55;;;0.20;;
55069;SDS011;40967;52.070;8.596;2023-07-20T08:11:56;0.70;;;0.30;;
55069;SDS011;40967;52.070;8.596;2023-07-20T08:14:22;0.20;;;0.17;;
55069;SDS011;40967;52.070;8.596;2023-07-20T08:16:47;0.30;;;0.20;;
55069;SDS011;40967;52.070;8.596;2023-07-20T08:19:12;0.30;;;0.20;;
55069;SDS011;40967;52.070;8.596;2023-07-20T08:21:38;0.30;;;0.20;;
55069;SDS011;40967;52.070;8.596;2023-07-20T08:24:03;0.40;;;0.20;;
55069;SDS011;40967;52.070;8.596;2023-07-20T08:26:29;0.40;;;0.20;;
55069;SDS011;40967;52.070;8.596;2023-07-20T08:28:54;0.50;;;0.20;;
55069;SDS011;40967;52.070;8.596;2023-07-20T08:31:19;0.20;;;0.20;;
55069;SDS011;40967;52.070;8.596;2023-07-20T08:33:45;0.30;;;0.10;;
55069;SDS011;40967;52.070;8.596;2023-07-20T08:36:10;0.50;;;0.20;;
55069;SDS011;40967;52.070;8.596;2023-07-20T08:38:36;0.30;;;0.20;;
55069;SDS011;40967;52.070;8.596;2023-07-20T08:41:01;0.50;;;0.30;;
55069;SDS011;40967;52.070;8.596;2023-07-20T08:43:27;0.50;;;0.30;;
55069;SDS011;40967;52.070;8.596;2023-07-20T08:45:54;0.30;;;0.20;;
55069;SDS011;40967;52.070;8.596;2023-07-20T08:48:20;0.15;;;0.10;;
55069;SDS011;40967;52.070;8.596;2023-07-20T08:50:47;0.40;;;0.10;;
55069;SDS011;40967;52.070;8.596;2023-07-20T08:53:15;0.40;;;0.20;;
55069;SDS011;40967;52.070;8.596;2023-07-20T08:55:42;0.40;;;0.10;;
55069;SDS011;40967;52.070;8.596;2023-07-20T08:58:10;0.10;;;0.10;;
55069;SDS011;40967;52.070;8.596;2023-07-20T09:00:37;0.38;;;0.10;;
55069;SDS011;40967;52.070;8.596;2023-07-20T09:03:03;0.17;;;0.10;;
55069;SDS011;40967;52.070;8.596;2023-07-20T09:05:29;0.73;;;0.20;;
55069;SDS011;40967;52.070;8.596;2023-07-20T09:07:55;0.60;;;0.20;;
55069;SDS011;40967;52.070;8.596;2023-07-20T09:10:21;0.27;;;0.20;;
55069;SDS011;40967;52.070;8.596;2023-07-20T09:12:46;0.10;;;0.10;;
55069;SDS011;40967;52.070;8.596;2023-07-20T09:15:12;0.13;;;0.13;;
55069;SDS011;40967;52.070;8.596;2023-07-20T09:17:37;0.30;;;0.13;;
55069;SDS011;40967;52.070;8.596;2023-07-20T09:20:04;0.30;;;0.20;;
55069;SDS011;40967;52.070;8.596;2023-07-20T09:22:35;0.30;;;0.20;;
55069;SDS011;40967;52.070;8.596;2023-07-20T09:25:08;0.43;;;0.15;;
55069;SDS011;40967;52.070;8.596;2023-07-20T09:27:38;0.43;;;0.10;;
55069;SDS011;40967;52.070;8.596;2023-07-20T09:30:07;0.20;;;0.13;;
55069;SDS011;40967;52.070;8.596;2023-07-20T09:32:44;0.20;;;0.10;;
55069;SDS011;40967;52.070;8.596;2023-07-20T09:37:40;0.25;;;0.20;;
55069;SDS011;40967;52.070;8.596;2023-07-20T09:40:11;0.15;;;0.13;;
55069;SDS011;40967;52.070;8.596;2023-07-20T09:42:40;0.38;;;0.22;;
55069;SDS011;40967;52.070;8.596;2023-07-20T09:45:08;0.20;;;0.20;;
55069;SDS011;40967;52.070;8.596;2023-07-20T09:47:35;1.50;;;0.50;;
55069;SDS011;40967;52.070;8.596;2023-07-20T09:50:02;0.30;;;0.20;;
55069;SDS011;40967;52.070;8.596;2023-07-20T09:52:28;0.32;;;0.20;;
55069;SDS011;40967;52.070;8.596;2023-07-20T09:54:54;0.60;;;0.20;;
55069;SDS011;40967;52.070;8.596;2023-07-20T09:57:20;0.20;;;0.20;;
55069;SDS011;40967;52.070;8.596;2023-07-20T09:59:46;0.20;;;0.15;;
55069;SDS011;40967;52.070;8.596;2023-07-20T10:02:20;0.10;;;0.10;;
55069;SDS011;40967;52.070;8.596;2023-07-20T10:04:49;0.10;;;0.10;;
55069;SDS011;40967;52.070;8.596;2023-07-20T10:07:21;0.17;;;0.10;;
55069;SDS011;40967;52.070;8.596;2023-07-20T10:09:48;0.57;;;0.17;;
55069;SDS011;40967;52.070;8.596;2023-07-20T10:12:17;0.10;;;0.10;;
55069;SDS011;40967;52.070;8.596;2023-07-20T10:14:53;0.10;;;0.10;;
55069;SDS011;40967;52.070;8.596;2023-07-20T10:17:25;0.90;;;0.20;;
55069;SDS011;40967;52.070;8.596;2023-07-20T10:19:51;0.30;;;0.10;;
55069;SDS011;40967;52.070;8.596;2023-07-20T10:22:25;0.70;;;0.20;;
55069;SDS011;40967;52.070;8.596;2023-07-20T10:24:51;0.20;;;0.10;;
55069;SDS011;40967;52.070;8.596;2023-07-20T10:27:19;0.15;;;0.15;;
55069;SDS011;40967;52.070;8.596;2023-07-20T10:29:45;0.13;;;0.10;;
55069;SDS011;40967;52.070;8.596;2023-07-20T10:32:11;0.60;;;0.13;;
55069;SDS011;40967;52.070;8.596;2023-07-20T10:34:37;0.13;;;0.10;;
55069;SDS011;40967;52.070;8.596;2023-07-20T10:37:03;0.40;;;0.20;;
55069;SDS011;40967;52.070;8.596;2023-07-20T10:39:30;0.10;;;0.10;;
55069;SDS011;40967;52.070;8.596;2023-07-20T10:42:07;0.20;;;0.10;;
55069;SDS011;40967;52.070;8.596;2023-07-20T10:44:32;0.77;;;0.22;;
55069;SDS011;40967;52.070;8.596;2023-07-20T10:46:58;0.73;;;0.20;;
55069;SDS011;40967;52.070;8.596;2023-07-20T10:49:30;0.30;;;0.20;;
55069;SDS011;40967;52.070;8.596;2023-07-20T10:51:59;0.25;;;0.20;;
55069;SDS011;40967;52.070;8.596;2023-07-20T10:56:50;0.10;;;0.10;;
55069;SDS011;40967;52.070;8.596;2023-07-20T10:59:19;0.40;;;0.20;;
55069;SDS011;40967;52.070;8.596;2023-07-20T11:02:05;0.63;;;0.20;;
55069;SDS011;40967;52.070;8.596;2023-07-20T11:07:07;0.63;;;0.20;;
55069;SDS011;40967;52.070;8.596;2023-07-20T11:09:36;0.22;;;0.20;;
55069;SDS011;40967;52.070;8.596;2023-07-20T11:12:12;0.53;;;0.20;;
55069;SDS011;40967;52.070;8.596;2023-07-20T11:17:21;0.60;;;0.40;;
55069;SDS011;40967;52.070;8.596;2023-07-20T11:20:03;1.10;;;0.30;;
55069;SDS011;40967;52.070;8.596;2023-07-20T11:22:33;0.32;;;0.20;;
55069;SDS011;40967;52.070;8.596;2023-07-20T11:24:58;0.80;;;0.40;;
55069;SDS011;40967;52.070;8.596;2023-07-20T11:27:24;0.33;;;0.20;;
55069;SDS011;40967;52.070;8.596;2023-07-20T11:29:49;1.33;;;0.33;;
55069;SDS011;40967;52.070;8.596;2023-07-20T11:32:21;0.50;;;0.30;;
55069;SDS011;40967;52.070;8.596;2023-07-20T11:34:49;0.50;;;0.30;;
55069;SDS011;40967;52.070;8.596;2023-07-20T11:37:16;0.50;;;0.30;;
55069;SDS011;40967;52.070;8.596;2023-07-20T11:39:43;0.50;;;0.22;;
55069;SDS011;40967;52.070;8.596;2023-07-20T11:42:08;1.20;;;0.47;;
55069;SDS011;40967;52.070;8.596;2023-07-20T11:44:34;0.90;;;0.28;;
55069;SDS011;40967;52.070;8.596;2023-07-20T11:47:09;0.38;;;0.20;;
55069;SDS011;40967;52.070;8.596;2023-07-20T11:49:36;0.60;;;0.32;;
55069;SDS011;40967;52.070;8.596;2023-07-20T11:52:02;0.30;;;0.28;;
55069;SDS011;40967;52.070;8.596;2023-07-20T11:54:30;1.40;;;0.30;;
55069;SDS011;40967;52.070;8.596;2023-07-20T11:56:55;0.53;;;0.30;;
55069;SDS011;40967;52.070;8.596;2023-07-20T11:59:21;0.40;;;0.30;;
55069;SDS011;40967;52.070;8.596;2023-07-20T12:01:46;0.30;;;0.20;;
55069;SDS011;40967;52.070;8.596;2023-07-20T12:04:11;1.30;;;0.40;;
55069;SDS011;40967;52.070;8.596;2023-07-20T12:06:37;0.90;;;0.50;;
55069;SDS011;40967;52.070;8.596;2023-07-20T12:09:02;0.70;;;0.50;;
55069;SDS011;40967;52.070;8.596;2023-07-20T12:11:35;0.70;;;0.40;;
55069;SDS011;40967;52.070;8.596;2023-07-20T12:14:02;0.77;;;0.40;;
55069;SDS011;40967;52.070;8.596;2023-07-20T12:16:28;1.33;;;0.30;;
55069;SDS011;40967;52.070;8.596;2023-07-20T12:21:27;0.50;;;0.30;;
55069;SDS011;40967;52.070;8.596;2023-07-20T12:23:53;0.80;;;0.40;;
55069;SDS011;40967;52.070;8.596;2023-07-20T12:26:21;0.70;;;0.50;;
55069;SDS011;40967;52.070;8.596;2023-07-20T12:28:49;0.40;;;0.40;;
55069;SDS011;40967;52.070;8.596;2023-07-20T12:31:14;0.57;;;0.40;;
55069;SDS011;40967;52.070;8.596;2023-07-20T12:33:40;0.50;;;0.40;;
55069;SDS011;40967;52.070;8.596;2023-07-20T12:36:05;0.60;;;0.50;;
55069;SDS011;40967;52.070;8.596;2023-07-20T12:38:30;0.80;;;0.50;;
55069;SDS011;40967;52.070;8.596;2023-07-20T12:40:56;0.60;;;0.50;;
55069;SDS011;40967;52.070;8.596;2023-07-20T12:43:23;1.20;;;0.55;;
55069;SDS011;40967;52.070;8.596;2023-07-20T12:45:48;0.50;;;0.40;;
55069;SDS011;40967;52.070;8.596;2023-07-20T12:48:14;0.43;;;0.40;;
55069;SDS011;40967;52.070;8.596;2023-07-20T12:50:39;0.30;;;0.30;;
55069;SDS011;40967;52.070;8.596;2023-07-20T12:53:04;0.30;;;0.30;;
55069;SDS011;40967;52.070;8.596;2023-07-20T12:55:30;0.38;;;0.38;;
55069;SDS011;40967;52.070;8.596;2023-07-20T12:57:55;0.60;;;0.30;;
55069;SDS011;40967;52.070;8.596;2023-07-20T13:00:21;0.50;;;0.45;;
55069;SDS011;40967;52.070;8.596;2023-07-20T13:02:49;0.50;;;0.40;;
55069;SDS011;40967;52.070;8.596;2023-07-20T13:05:15;0.45;;;0.38;;
55069;SDS011;40967;52.070;8.596;2023-07-20T13:07:41;0.40;;;0.30;;
55069;SDS011;40967;52.070;8.596;2023-07-20T13:10:07;0.30;;;0.30;;
55069;SDS011;40967;52.070;8.596;2023-07-20T13:12:33;0.22;;;0.20;;
55069;SDS011;40967;52.070;8.596;2023-07-20T13:15:01;0.70;;;0.40;;
55069;SDS011;40967;52.070;8.596;2023-07-20T13:17:30;0.40;;;0.30;;
55069;SDS011;40967;52.070;8.596;2023-07-20T13:19:55;1.20;;;0.40;;
55069;SDS011;40967;52.070;8.596;2023-07-20T13:22:21;0.30;;;0.30;;
55069;SDS011;40967;52.070;8.596;2023-07-20T13:24:46;0.60;;;0.30;;
55069;SDS011;40967;52.070;8.596;2023-07-20T13:27:18;0.43;;;0.40;;
55069;SDS011;40967;52.070;8.596;2023-07-20T13:29:44;0.63;;;0.30;;
55069;SDS011;40967;52.070;8.596;2023-07-20T13:32:12;0.22;;;0.20;;
55069;SDS011;40967;52.070;8.596;2023-07-20T13:34:39;0.30;;;0.20;;
55069;SDS011;40967;52.070;8.596;2023-07-20T13:37:04;0.50;;;0.30;;
55069;SDS011;40967;52.070;8.596;2023-07-20T13:39:30;0.27;;;0.27;;
55069;SDS011;40967;52.070;8.596;2023-07-20T13:41:56;0.30;;;0.20;;
55069;SDS011;40967;52.070;8.596;2023-07-20T13:44:21;0.20;;;0.20;;
55069;SDS011;40967;52.070;8.596;2023-07-20T13:46:47;0.40;;;0.30;;
55069;SDS011;40967;52.070;8.596;2023-07-20T13:49:13;0.73;;;0.30;;
55069;SDS011;40967;52.070;8.596;2023-07-20T13:51:39;0.60;;;0.30;;
55069;SDS011;40967;52.070;8.596;2023-07-20T13:54:05;0.55;;;0.10;;
55069;SDS011;40967;52.070;8.596;2023-07-20T13:56:31;0.20;;;0.20;;
55069;SDS011;40967;52.070;8.596;2023-07-20T13:58:56;0.20;;;0.20;;
55069;SDS011;40967;52.070;8.596;2023-07-20T14:01:22;0.37;;;0.10;;
55069;SDS011;40967;52.070;8.596;2023-07-20T14:03:49;0.30;;;0.10;;
55069;SDS011;40967;52.070;8.596;2023-07-20T14:06:15;0.60;;;0.23;;
55069;SDS011;40967;52.070;8.596;2023-07-20T14:08:40;0.30;;;0.20;;
55069;SDS011;40967;52.070;8.596;2023-07-20T14:11:06;0.30;;;0.30;;
55069;SDS011;40967;52.070;8.596;2023-07-20T14:13:31;0.40;;;0.30;;
55069;SDS011;40967;52.070;8.596;2023-07-20T14:15:59;0.30;;;0.30;;
55069;SDS011;40967;52.070;8.596;2023-07-20T14:18:39;0.30;;;0.20;;
55069;SDS011;40967;52.070;8.596;2023-07-20T14:21:04;0.27;;;0.10;;
55069;SDS011;40967;52.070;8.596;2023-07-20T14:23:31;0.20;;;0.20;;
55069;SDS011;40967;52.070;8.596;2023-07-20T14:25:57;0.68;;;0.30;;
55069;SDS011;40967;52.070;8.596;2023-07-20T14:28:23;0.30;;;0.10;;
55069;SDS011;40967;52.070;8.596;2023-07-20T14:30:48;0.30;;;0.20;;
55069;SDS011;40967;52.070;8.596;2023-07-20T14:33:14;0.30;;;0.30;;
55069;SDS011;40967;52.070;8.596;2023-07-20T14:35:39;0.40;;;0.20;;
55069;SDS011;40967;52.070;8.596;2023-07-20T14:38:05;0.80;;;0.40;;
55069;SDS011;40967;52.070;8.596;2023-07-20T14:40:30;0.63;;;0.30;;
55069;SDS011;40967;52.070;8.596;2023-07-20T14:42:55;0.40;;;0.30;;
55069;SDS011;40967;52.070;8.596;2023-07-20T14:45:21;0.50;;;0.17;;
55069;SDS011;40967;52.070;8.596;2023-07-20T14:47:47;0.60;;;0.37;;
55069;SDS011;40967;52.070;8.596;2023-07-20T14:50:18;0.25;;;0.20;;
55069;SDS011;40967;52.070;8.596;2023-07-20T14:52:44;0.50;;;0.22;;
55069;SDS011;40967;52.070;8.596;2023-07-20T14:55:10;0.70;;;0.30;;
55069;SDS011;40967;52.070;8.596;2023-07-20T14:57:36;1.13;;;0.50;;
55069;SDS011;40967;52.070;8.596;2023-07-20T15:00:01;0.30;;;0.20;;
55069;SDS011;40967;52.070;8.596;2023-07-20T15:02:28;0.60;;;0.35;;
55069;SDS011;40967;52.070;8.596;2023-07-20T15:04:53;0.57;;;0.30;;
55069;SDS011;40967;52.070;8.596;2023-07-20T15:07:21;0.70;;;0.27;;
55069;SDS011;40967;52.070;8.596;2023-07-20T15:09:49;0.65;;;0.40;;